createdAt,value
2022-07-29T00:01:38.725Z,59.58
2022-07-29T00:04:07.010Z,59.73
2022-07-29T00:06:34.996Z,60.02
2022-07-29T00:09:02.921Z,60.03
2022-07-29T00:11:31.230Z,60.26
2022-07-29T00:13:59.100Z,60.56
2022-07-29T00:16:27.115Z,60.71
2022-07-29T00:18:55.383Z,60.90
2022-07-29T00:21:23.217Z,61.12
2022-07-29T00:23:51.133Z,61.14
2022-07-29T00:26:19.376Z,61.12
2022-07-29T00:28:47.212Z,61.19
2022-07-29T00:31:16.272Z,61.03
2022-07-29T00:33:44.592Z,60.21
2022-07-29T00:36:12.522Z,60.00
2022-07-29T00:38:42.642Z,60.11
2022-07-29T00:41:11.084Z,60.36
2022-07-29T00:43:39.047Z,60.55
2022-07-29T00:46:06.955Z,60.86
2022-07-29T00:48:35.176Z,61.06
2022-07-29T00:51:05.460Z,61.14
2022-07-29T00:53:33.639Z,61.39
2022-07-29T00:56:01.901Z,61.41
2022-07-29T00:58:29.819Z,62.18
2022-07-29T01:00:59.256Z,62.49
2022-07-29T01:03:27.427Z,62.82
2022-07-29T01:05:55.926Z,62.75
2022-07-29T01:08:24.919Z,62.72
2022-07-29T01:10:54.246Z,62.95
2022-07-29T01:13:23.487Z,62.99
2022-07-29T01:15:58.022Z,62.83
2022-07-29T01:18:35.052Z,63.21
2022-07-29T01:21:45.981Z,63.12
2022-07-29T01:24:51.527Z,63.36
2022-07-29T01:27:38.174Z,63.15
2022-07-29T01:30:08.506Z,64.60
2022-07-29T01:32:40.538Z,64.03
2022-07-29T01:35:11.257Z,64.08
2022-07-29T01:37:58.955Z,64.74
2022-07-29T01:40:41.889Z,64.79
2022-07-29T01:43:19.905Z,64.29
2022-07-29T01:46:04.255Z,64.63
2022-07-29T01:49:02.196Z,64.76
2022-07-29T01:51:36.748Z,63.46
2022-07-29T01:54:27.701Z,64.15
2022-07-29T01:56:59.822Z,64.29
2022-07-29T01:59:30.032Z,63.79
2022-07-29T02:02:00.657Z,63.59
2022-07-29T02:04:30.608Z,63.42
2022-07-29T02:07:04.685Z,63.70
2022-07-29T02:09:35.859Z,64.18
2022-07-29T02:12:05.261Z,63.49
2022-07-29T02:14:37.470Z,63.44
2022-07-29T02:17:05.876Z,63.77
2022-07-29T02:19:35.217Z,64.89
2022-07-29T02:22:03.857Z,65.90
2022-07-29T02:24:32.315Z,65.93
2022-07-29T02:27:02.037Z,65.59
2022-07-29T02:29:32.999Z,65.61
2022-07-29T02:32:04.040Z,65.76
2022-07-29T02:34:34.351Z,66.03
2022-07-29T02:37:04.766Z,66.17
2022-07-29T02:39:35.473Z,66.12
2022-07-29T02:42:08.239Z,66.16
2022-07-29T02:44:37.063Z,66.48
2022-07-29T02:47:23.170Z,66.47
2022-07-29T02:50:09.481Z,66.66
2022-07-29T02:53:10.087Z,66.38
2022-07-29T02:55:47.477Z,66.27
2022-07-29T02:58:29.431Z,66.09
2022-07-29T03:01:04.530Z,65.95
2022-07-29T03:03:38.453Z,65.96
2022-07-29T03:06:08.544Z,65.92
2022-07-29T03:08:57.703Z,65.91
2022-07-29T03:11:41.442Z,65.89
2022-07-29T03:14:15.683Z,65.84
2022-07-29T03:16:44.092Z,65.83
2022-07-29T03:19:12.344Z,65.83
2022-07-29T03:21:40.682Z,65.55
2022-07-29T03:24:10.867Z,65.18
2022-07-29T03:26:40.985Z,64.95
2022-07-29T03:29:09.243Z,65.02
2022-07-29T03:31:41.867Z,65.43
2022-07-29T03:34:11.561Z,65.71
2022-07-29T03:36:39.481Z,65.92
2022-07-29T03:39:11.085Z,65.97
2022-07-29T03:41:40.170Z,66.29
2022-07-29T03:44:09.684Z,65.96
2022-07-29T03:46:40.075Z,66.56
2022-07-29T03:49:09.633Z,65.93
2022-07-29T03:51:37.902Z,65.80
2022-07-29T03:54:10.113Z,65.63
2022-07-29T03:56:49.038Z,65.33
2022-07-29T03:59:20.522Z,65.52
2022-07-29T04:01:50.113Z,65.38
2022-07-29T04:04:18.859Z,65.28
2022-07-29T04:06:48.283Z,65.21
2022-07-29T04:09:16.367Z,65.13
2022-07-29T04:12:02.072Z,65.02
2022-07-29T04:14:33.784Z,64.58
2022-07-29T04:17:03.235Z,64.00
2022-07-29T04:19:31.805Z,63.48
2022-07-29T04:22:01.030Z,63.01
2022-07-29T04:24:29.534Z,62.80
2022-07-29T04:26:57.410Z,62.26
2022-07-29T04:29:25.284Z,61.50
2022-07-29T04:31:53.719Z,58.59
2022-07-29T04:34:21.656Z,55.68
2022-07-29T04:36:49.560Z,54.96
2022-07-29T04:39:22.758Z,54.84
2022-07-29T04:41:52.394Z,54.99
2022-07-29T04:44:26.530Z,48.52
2022-07-29T04:46:58.219Z,40.82
2022-07-29T04:49:26.733Z,41.69
2022-07-29T04:51:55.101Z,42.92
2022-07-29T04:54:23.327Z,40.49
2022-07-29T04:56:51.773Z,37.54
2022-07-29T04:59:19.825Z,35.00
2022-07-29T05:01:47.818Z,34.91
2022-07-29T05:04:16.375Z,35.77
2022-07-29T05:06:44.609Z,32.84
2022-07-29T05:09:12.473Z,28.26
2022-07-29T05:11:40.799Z,34.45
2022-07-29T05:14:08.776Z,35.15
2022-07-29T09:02:40.288Z,22.86
2022-07-29T09:05:10.766Z,20.94
2022-07-29T09:07:40.847Z,21.53
2022-07-29T09:10:10.009Z,19.97
2022-07-29T09:12:39.003Z,20.69
2022-07-29T09:15:09.388Z,20.89
2022-07-29T09:17:47.882Z,21.37
2022-07-29T09:20:21.427Z,20.97
2022-07-29T09:22:51.936Z,24.15
2022-07-29T09:25:37.078Z,21.83
2022-07-29T09:28:18.832Z,23.38
2022-07-29T09:30:55.312Z,23.86
2022-07-29T09:33:34.452Z,21.24
2022-07-29T09:36:07.597Z,22.63
2022-07-29T09:38:38.622Z,21.75
2022-07-29T09:41:09.135Z,23.91
2022-07-29T09:43:38.805Z,24.37
2022-07-29T09:46:16.994Z,25.38
2022-07-29T09:48:45.452Z,26.45
2022-07-29T09:51:25.554Z,27.33
2022-07-29T09:53:57.341Z,27.29
2022-07-29T09:56:42.786Z,28.07
2022-07-29T09:59:14.348Z,28.14
2022-07-29T10:01:43.033Z,28.32
2022-07-29T10:04:12.966Z,28.42
2022-07-29T10:07:09.781Z,28.37
2022-07-29T10:09:40.663Z,28.28
2022-07-29T10:12:17.448Z,27.50
2022-07-29T10:14:46.677Z,27.39
2022-07-29T10:17:16.714Z,27.38
2022-07-29T10:19:45.715Z,26.41
2022-07-29T10:22:15.043Z,26.12
2022-07-29T10:24:43.003Z,25.95
2022-07-29T10:27:10.983Z,26.55
2022-07-29T10:29:39.339Z,25.74
2022-07-29T10:32:31.884Z,26.75
2022-07-29T10:35:09.929Z,26.19
2022-07-29T10:38:24.793Z,27.75
2022-07-29T10:41:21.281Z,27.40
2022-07-29T10:43:53.265Z,27.94
2022-07-29T10:46:23.740Z,29.15
2022-07-29T10:49:24.729Z,29.71
2022-07-29T10:51:58.360Z,29.50
2022-07-29T10:54:52.486Z,28.70
2022-07-29T10:57:54.210Z,29.09
2022-07-29T11:00:31.681Z,28.61
2022-07-29T11:03:01.301Z,27.40
2022-07-29T11:05:53.488Z,27.41
2022-07-29T11:08:29.081Z,27.21
2022-07-29T11:11:22.191Z,27.52
2022-07-29T11:13:53.275Z,28.07
2022-07-29T11:16:25.302Z,27.55
2022-07-29T11:19:21.612Z,27.33
2022-07-29T11:21:58.910Z,24.98
2022-07-29T11:24:32.482Z,23.94
2022-07-29T11:27:13.520Z,24.45
2022-07-29T11:29:54.430Z,23.25
2022-07-29T11:35:37.047Z,25.09
2022-07-29T11:38:28.893Z,25.03
2022-07-29T11:41:25.565Z,24.05
2022-07-29T11:43:56.998Z,25.11
2022-07-29T11:46:49.970Z,24.72
2022-07-29T11:49:31.933Z,24.94
2022-07-29T11:52:22.855Z,24.44
2022-07-29T11:55:00.547Z,24.29
2022-07-29T11:57:36.171Z,24.27
2022-07-29T12:00:12.614Z,24.24
2022-07-29T12:02:48.136Z,24.32
2022-07-29T12:05:35.975Z,24.37
2022-07-29T12:07:01.471Z,24.08
2022-07-29T12:08:20.291Z,25.33
2022-07-29T12:10:52.943Z,25.07
2022-07-29T12:13:22.187Z,25.46
2022-07-29T12:16:00.022Z,25.52
2022-07-29T12:18:29.425Z,25.27
2022-07-29T12:21:06.821Z,25.48
2022-07-29T12:23:37.565Z,25.56
2022-07-29T12:26:11.008Z,25.80
2022-07-29T12:28:53.504Z,25.89
2022-07-29T12:31:43.847Z,25.60
2022-07-29T12:34:16.877Z,25.67
2022-07-29T12:36:45.661Z,26.13
2022-07-29T12:39:14.912Z,26.22
2022-07-29T12:41:45.372Z,25.84
2022-07-29T12:44:14.449Z,26.20
2022-07-29T12:46:42.338Z,25.55
2022-07-29T12:49:10.499Z,25.42
2022-07-29T12:51:41.619Z,25.41
2022-07-29T12:54:16.333Z,26.09
2022-07-29T12:56:46.108Z,27.06
2022-07-29T12:59:15.705Z,27.09
2022-07-29T13:01:45.684Z,28.23
2022-07-29T13:04:26.567Z,28.09
2022-07-29T13:07:07.498Z,28.12
2022-07-29T13:09:39.379Z,28.45
2022-07-29T13:12:11.198Z,28.26
2022-07-29T13:14:46.024Z,27.75
2022-07-29T13:17:24.265Z,27.74
2022-07-29T13:20:06.116Z,26.69
2022-07-29T13:22:37.451Z,26.95
2022-07-29T13:25:08.974Z,27.48
2022-07-29T13:27:39.657Z,27.10
2022-07-29T13:30:10.453Z,27.33
2022-07-29T13:32:38.787Z,26.94
2022-07-29T13:35:09.098Z,26.80
2022-07-29T13:37:39.619Z,27.43
2022-07-29T13:40:11.938Z,27.19
2022-07-29T13:42:40.351Z,27.36
2022-07-29T13:45:09.532Z,27.18
2022-07-29T13:47:37.938Z,27.68
2022-07-29T13:50:08.240Z,27.84
2022-07-29T13:52:36.475Z,27.63
2022-07-29T13:55:05.327Z,27.93
2022-07-29T13:57:33.653Z,28.17
2022-07-29T14:00:01.566Z,27.35
2022-07-29T14:02:36.315Z,27.02
2022-07-29T14:05:08.398Z,27.47
2022-07-29T14:07:38.055Z,27.28
2022-07-29T14:10:07.096Z,27.45
2022-07-29T14:12:35.196Z,27.36
2022-07-29T14:15:03.601Z,27.22
2022-07-29T14:17:31.955Z,26.21
2022-07-29T14:20:00.552Z,26.54
2022-07-29T14:22:28.539Z,26.87
2022-07-29T14:24:56.754Z,26.94
2022-07-29T14:27:36.904Z,27.65
2022-07-29T14:30:07.581Z,27.20
2022-07-29T14:32:35.478Z,27.48
2022-07-29T14:35:03.735Z,27.84
2022-07-29T14:37:39.786Z,27.86
2022-07-29T14:40:10.421Z,27.51
2022-07-29T14:42:39.136Z,27.33
2022-07-29T14:45:09.087Z,27.55
2022-07-29T14:47:38.318Z,27.71
2022-07-29T14:50:07.423Z,27.98
2022-07-29T14:52:36.467Z,27.48
2022-07-29T14:55:05.335Z,27.32
2022-07-29T14:57:44.649Z,27.72
2022-07-29T15:00:12.907Z,27.88
2022-07-29T15:03:00.925Z,28.02
2022-07-29T15:05:29.374Z,27.77
2022-07-29T15:07:57.391Z,27.98
2022-07-29T15:10:27.227Z,27.77
2022-07-29T15:12:56.363Z,28.21
2022-07-29T15:15:24.539Z,27.91
2022-07-29T15:17:52.496Z,27.77
2022-07-29T15:20:20.764Z,27.57
2022-07-29T15:22:48.744Z,28.05
2022-07-29T15:25:16.634Z,28.18
2022-07-29T15:27:48.965Z,28.34
2022-07-29T15:30:32.478Z,28.32
2022-07-29T15:33:05.350Z,28.48
2022-07-29T15:35:40.579Z,28.32
2022-07-29T15:38:09.306Z,28.78
2022-07-29T15:40:39.594Z,28.88
2022-07-29T15:43:07.890Z,29.11
2022-07-29T15:45:41.313Z,29.14
2022-07-29T15:48:10.380Z,29.08
2022-07-29T15:50:43.202Z,29.10
2022-07-29T15:53:15.389Z,29.08
2022-07-29T15:55:44.508Z,29.48
2022-07-29T15:58:12.676Z,29.48
2022-07-29T16:00:40.666Z,29.49
2022-07-29T16:03:08.963Z,29.54
2022-07-29T16:05:37.302Z,29.98
2022-07-29T16:08:05.813Z,29.98
2022-07-29T16:10:34.360Z,29.64
2022-07-29T16:13:02.378Z,29.62
2022-07-29T16:15:30.346Z,29.71
2022-07-29T16:17:58.639Z,29.58
2022-07-29T16:20:26.716Z,29.86
2022-07-29T16:22:55.290Z,29.82
2022-07-29T16:25:38.406Z,30.08
2022-07-29T16:28:11.542Z,30.41
2022-07-29T16:30:39.760Z,30.06
2022-07-29T16:33:08.510Z,30.59
2022-07-29T16:35:40.152Z,30.85
2022-07-29T16:38:08.693Z,30.99
2022-07-29T16:40:37.014Z,31.12
2022-07-29T16:43:04.928Z,31.16
2022-07-29T16:45:45.113Z,31.37
2022-07-29T16:48:15.326Z,31.26
2022-07-29T16:50:46.581Z,31.71
2022-07-29T16:53:14.463Z,31.91
2022-07-29T16:55:42.764Z,32.08
2022-07-29T16:58:11.458Z,32.01
2022-07-29T17:00:42.138Z,32.22
2022-07-29T17:03:10.382Z,32.55
2022-07-29T17:05:52.315Z,32.59
2022-07-29T17:08:23.008Z,32.77
2022-07-29T17:10:51.339Z,32.94
2022-07-29T17:13:19.629Z,33.18
2022-07-29T17:15:48.059Z,33.50
2022-07-29T17:18:16.031Z,34.08
2022-07-29T17:20:44.078Z,34.60
2022-07-29T17:23:12.360Z,34.89
2022-07-29T17:25:43.707Z,34.90
2022-07-29T17:28:11.624Z,35.27
2022-07-29T17:30:39.871Z,35.53
2022-07-29T17:33:09.012Z,35.85
2022-07-29T17:35:55.354Z,35.50
2022-07-29T17:38:23.539Z,35.62
2022-07-29T17:40:51.606Z,35.98
2022-07-29T17:43:19.532Z,35.96
2022-07-29T17:45:50.083Z,36.16
2022-07-29T17:48:19.617Z,36.56
2022-07-29T17:50:49.051Z,37.07
2022-07-29T17:53:17.411Z,37.27
2022-07-29T17:55:51.228Z,37.47
2022-07-29T17:58:19.628Z,38.01
2022-07-29T18:00:48.321Z,38.27
2022-07-29T18:03:16.735Z,38.39
2022-07-29T18:05:45.150Z,38.80
2022-07-29T18:08:13.228Z,39.40
2022-07-29T18:10:41.750Z,39.57
2022-07-29T18:13:11.664Z,39.61
2022-07-29T18:15:40.595Z,39.74
2022-07-29T18:18:09.227Z,39.90
2022-07-29T18:20:37.781Z,40.04
2022-07-29T18:23:06.109Z,40.38
2022-07-29T18:25:34.556Z,40.63
2022-07-29T18:28:02.468Z,40.99
2022-07-29T18:30:31.226Z,41.16
2022-07-29T18:33:20.228Z,41.73
2022-07-29T18:35:49.596Z,42.09
2022-07-29T18:38:18.436Z,42.36
2022-07-29T18:40:46.508Z,42.44
2022-07-29T18:43:14.685Z,42.55
2022-07-29T18:45:43.031Z,42.66
2022-07-29T18:48:12.741Z,42.71
2022-07-29T18:50:41.914Z,43.03
2022-07-29T18:53:10.356Z,43.25
2022-07-29T18:55:38.370Z,42.87
2022-07-29T18:58:06.553Z,42.92
2022-07-29T19:00:35.464Z,43.15
2022-07-29T19:03:03.696Z,43.10
2022-07-29T19:05:32.397Z,43.22
2022-07-29T19:08:00.835Z,43.50
2022-07-29T19:10:29.037Z,43.46
2022-07-29T19:12:58.131Z,43.52
2022-07-29T19:15:26.815Z,43.95
2022-07-29T19:17:59.015Z,43.89
2022-07-29T19:20:29.569Z,43.92
2022-07-29T19:22:57.614Z,44.28
2022-07-29T19:25:25.916Z,44.26
2022-07-29T19:27:54.323Z,44.42
2022-07-29T19:30:22.454Z,44.73
2022-07-29T19:32:50.678Z,45.04
2022-07-29T19:35:28.464Z,45.26
2022-07-29T19:37:58.432Z,45.62
2022-07-29T19:40:27.921Z,45.69
2022-07-29T19:42:56.605Z,45.83
2022-07-29T19:45:26.149Z,46.01
2022-07-29T19:48:00.752Z,46.23
2022-07-29T19:50:30.273Z,46.46
2022-07-29T19:52:59.512Z,46.87
2022-07-29T19:55:28.227Z,47.28
2022-07-29T19:57:56.630Z,47.37
2022-07-29T20:00:26.047Z,47.35
2022-07-29T20:02:54.464Z,47.42
2022-07-29T20:05:27.837Z,47.53
2022-07-29T20:07:57.162Z,47.59
2022-07-29T20:10:25.352Z,47.76
2022-07-29T20:12:55.025Z,47.88
2022-07-29T20:15:23.876Z,47.89
2022-07-29T20:17:56.935Z,47.99
2022-07-29T20:20:25.879Z,48.21
2022-07-29T20:22:54.340Z,48.45
2022-07-29T20:25:23.380Z,48.73
2022-07-29T20:27:52.647Z,48.84
2022-07-29T20:30:22.312Z,48.64
2022-07-29T20:32:50.724Z,48.63
2022-07-29T20:35:20.230Z,48.67
2022-07-29T20:37:52.034Z,48.83
2022-07-29T20:40:25.934Z,49.07
2022-07-29T20:42:54.513Z,49.32
2022-07-29T20:45:23.765Z,49.25
2022-07-29T20:47:52.871Z,49.22
2022-07-29T20:50:24.261Z,49.20
2022-07-29T20:52:53.437Z,49.20
2022-07-29T20:55:21.847Z,49.69
2022-07-29T20:57:55.433Z,49.62
2022-07-29T21:00:23.701Z,49.57
2022-07-29T21:02:51.847Z,49.73
2022-07-29T21:05:19.889Z,50.09
2022-07-29T21:07:48.088Z,50.12
2022-07-29T21:10:18.340Z,50.24
2022-07-29T21:12:46.867Z,50.46
2022-07-29T21:15:15.349Z,50.61
2022-07-29T21:17:49.143Z,50.78
2022-07-29T21:20:19.078Z,50.93
2022-07-29T21:22:47.064Z,51.06
2022-07-29T21:25:15.169Z,50.90
2022-07-29T21:28:02.169Z,51.19
2022-07-29T21:30:30.043Z,51.37
2022-07-29T21:32:58.846Z,51.61
2022-07-29T21:36:01.690Z,51.75
2022-07-29T21:38:16.536Z,52.12
2022-07-29T21:40:48.739Z,52.50
2022-07-29T21:43:17.786Z,52.78
2022-07-29T21:45:52.282Z,53.20
2022-07-29T21:48:21.651Z,53.61
2022-07-29T21:50:51.059Z,54.01
2022-07-29T21:53:20.826Z,54.42
2022-07-29T21:55:51.581Z,54.85
2022-07-29T21:58:22.221Z,55.21
2022-07-29T22:00:50.333Z,55.41
2022-07-29T22:03:18.555Z,55.70
2022-07-29T22:05:46.613Z,55.88
2022-07-29T22:08:14.757Z,56.13
2022-07-29T22:10:43.198Z,56.29
2022-07-29T22:13:11.447Z,56.79
2022-07-29T22:15:41.188Z,56.63
2022-07-29T22:18:12.476Z,56.72
2022-07-29T22:20:47.391Z,57.40
2022-07-29T22:23:15.746Z,57.33
2022-07-29T22:25:43.627Z,58.44
2022-07-29T22:28:11.566Z,57.88
2022-07-29T22:30:39.861Z,57.98
2022-07-29T22:33:07.770Z,57.98
2022-07-29T22:35:35.817Z,57.98
2022-07-29T22:38:04.053Z,57.91
2022-07-29T22:40:32.782Z,57.93
2022-07-29T22:43:02.217Z,57.32
2022-07-29T22:45:30.426Z,57.50
2022-07-29T22:47:59.443Z,57.59
2022-07-29T22:50:27.539Z,57.58
2022-07-29T22:52:55.775Z,57.64
2022-07-29T22:55:23.659Z,57.77
2022-07-29T22:57:51.683Z,58.09
2022-07-29T23:00:19.943Z,58.28
2022-07-29T23:02:47.930Z,58.44
2022-07-29T23:05:16.097Z,58.68
2022-07-29T23:07:44.582Z,59.02
2022-07-29T23:10:12.477Z,59.31
2022-07-29T23:12:40.360Z,59.58
2022-07-29T23:15:08.720Z,59.73
2022-07-29T23:17:37.096Z,59.82
2022-07-29T23:20:07.723Z,59.85
2022-07-29T23:22:36.512Z,59.90
2022-07-29T23:25:06.367Z,59.94
2022-07-29T23:27:34.409Z,60.14
2022-07-29T23:30:03.802Z,60.17
2022-07-29T23:32:31.846Z,60.61
2022-07-29T23:34:59.831Z,60.73
2022-07-29T23:37:28.110Z,60.84
2022-07-29T23:39:56.454Z,60.78
2022-07-29T23:42:24.322Z,60.74
2022-07-29T23:44:52.712Z,60.89
2022-07-29T23:47:20.643Z,61.11
2022-07-29T23:49:50.101Z,61.46
2022-07-29T23:52:18.600Z,61.54
2022-07-29T23:54:46.679Z,61.73
2022-07-29T23:57:14.665Z,61.97
2022-07-29T23:59:42.930Z,62.13
